createdAt,value
2018-07-24T00:00:25.638Z,21.23
2018-07-24T00:02:54.596Z,21.18
2018-07-24T00:05:23.705Z,21.17
2018-07-24T00:07:52.997Z,21.09
2018-07-24T00:10:21.753Z,21.07
2018-07-24T00:12:50.504Z,21.03
2018-07-24T00:15:19.281Z,21.01
2018-07-24T00:17:48.098Z,20.93
2018-07-24T00:20:16.907Z,20.85
2018-07-24T00:22:45.803Z,20.80
2018-07-24T00:25:14.688Z,20.82
2018-07-24T00:27:43.562Z,20.81
2018-07-24T00:30:12.370Z,20.81
2018-07-24T00:32:41.057Z,20.75
2018-07-24T00:35:09.806Z,20.70
2018-07-24T00:37:38.678Z,20.68
2018-07-24T00:40:07.492Z,20.64
2018-07-24T00:42:37.021Z,20.62
2018-07-24T00:45:05.854Z,20.59
2018-07-24T00:47:34.942Z,20.58
2018-07-24T00:50:03.898Z,20.50
2018-07-24T00:52:32.809Z,20.49
2018-07-24T00:55:01.753Z,20.48
2018-07-24T00:57:30.595Z,20.50
2018-07-24T00:59:59.379Z,20.50
2018-07-24T01:02:28.148Z,20.48
2018-07-24T01:04:56.906Z,20.44
2018-07-24T01:07:28.064Z,20.44
2018-07-24T01:09:56.835Z,20.43
2018-07-24T01:12:25.801Z,20.38
2018-07-24T01:14:54.680Z,20.35
2018-07-24T01:17:23.544Z,20.33
2018-07-24T01:19:52.417Z,20.28
2018-07-24T01:22:21.284Z,20.21
2018-07-24T01:24:50.077Z,20.22
2018-07-24T01:27:19.026Z,20.18
2018-07-24T01:29:47.840Z,20.14
2018-07-24T01:32:16.770Z,20.11
2018-07-24T01:34:45.705Z,20.10
2018-07-24T01:37:14.442Z,20.05
2018-07-24T01:39:43.508Z,20.04
2018-07-24T01:42:12.201Z,20.04
2018-07-24T01:44:40.978Z,20.06
2018-07-24T01:47:10.269Z,20.04
2018-07-24T01:49:39.030Z,19.97
2018-07-24T01:52:07.778Z,19.94
2018-07-24T01:54:36.741Z,19.96
2018-07-24T01:57:05.509Z,19.93
2018-07-24T01:59:34.253Z,19.91
2018-07-24T02:02:03.174Z,19.89
2018-07-24T02:04:31.996Z,19.83
2018-07-24T02:07:00.966Z,19.79
2018-07-24T02:09:29.780Z,19.76
2018-07-24T02:11:58.826Z,19.69
2018-07-24T02:14:28.140Z,19.72
2018-07-24T02:16:57.111Z,19.62
2018-07-24T02:19:25.993Z,19.55
2018-07-24T02:21:54.865Z,19.57
2018-07-24T02:24:23.761Z,19.47
2018-07-24T02:26:52.451Z,19.38
2018-07-24T02:29:21.244Z,19.37
2018-07-24T02:31:50.001Z,19.35
2018-07-24T02:34:18.866Z,19.30
2018-07-24T02:36:47.538Z,19.18
2018-07-24T02:39:16.448Z,19.13
2018-07-24T02:41:45.218Z,19.13
2018-07-24T02:44:13.982Z,19.18
2018-07-24T02:46:42.702Z,19.25
2018-07-24T02:49:11.522Z,19.27
2018-07-24T02:51:40.270Z,19.24
2018-07-24T02:54:09.025Z,19.19
2018-07-24T02:56:37.957Z,19.21
2018-07-24T02:59:07.289Z,19.17
2018-07-24T03:01:36.219Z,19.15
2018-07-24T03:04:05.001Z,19.10
2018-07-24T03:06:33.818Z,19.12
2018-07-24T03:09:02.609Z,19.15
2018-07-24T03:11:31.516Z,19.19
2018-07-24T03:14:00.297Z,19.19
2018-07-24T03:16:29.129Z,19.20
2018-07-24T03:18:57.987Z,19.23
2018-07-24T03:21:26.784Z,19.23
2018-07-24T03:23:55.549Z,19.22
2018-07-24T03:26:24.489Z,19.22
2018-07-24T03:28:53.393Z,19.20
2018-07-24T03:31:22.213Z,19.16
2018-07-24T03:33:51.242Z,19.14
2018-07-24T03:36:20.053Z,19.14
2018-07-24T03:38:48.937Z,19.10
2018-07-24T03:41:17.846Z,19.06
2018-07-24T03:43:46.606Z,19.07
2018-07-24T03:46:15.437Z,19.06
2018-07-24T03:48:44.077Z,19.09
2018-07-24T03:51:13.499Z,19.10
2018-07-24T03:53:42.430Z,19.16
2018-07-24T03:56:11.259Z,19.15
2018-07-24T03:58:40.126Z,19.19
2018-07-24T04:01:08.950Z,19.20
2018-07-24T04:03:37.705Z,19.26
2018-07-24T04:06:06.623Z,19.27
2018-07-24T04:08:35.386Z,19.27
2018-07-24T04:11:04.433Z,19.24
2018-07-24T04:13:33.105Z,19.21
2018-07-24T04:16:01.855Z,19.23
2018-07-24T04:18:34.689Z,19.24
2018-07-24T04:21:03.421Z,19.24
2018-07-24T04:23:32.206Z,19.24
2018-07-24T04:26:00.942Z,19.27
2018-07-24T04:28:29.711Z,19.28
2018-07-24T04:30:58.481Z,19.32
2018-07-24T04:33:27.378Z,19.38
2018-07-24T04:35:57.085Z,19.43
2018-07-24T04:38:26.146Z,19.42
2018-07-24T04:40:55.066Z,19.44
2018-07-24T04:43:24.225Z,19.49
2018-07-24T04:45:53.063Z,19.54
2018-07-24T04:48:21.995Z,19.56
2018-07-24T04:50:50.931Z,19.57
2018-07-24T04:53:19.738Z,19.61
2018-07-24T04:55:48.761Z,19.74
2018-07-24T04:58:17.545Z,19.74
2018-07-24T05:00:46.256Z,19.78
2018-07-24T05:03:15.207Z,19.79
2018-07-24T05:05:44.087Z,19.84
2018-07-24T05:08:12.885Z,19.86
2018-07-24T05:10:41.770Z,19.87
2018-07-24T05:13:10.609Z,19.95
2018-07-24T05:15:39.378Z,19.95
2018-07-24T05:18:08.550Z,20.05
2018-07-24T05:20:37.397Z,20.06
2018-07-24T05:23:06.241Z,20.08
2018-07-24T05:25:35.013Z,20.10
2018-07-24T05:28:04.167Z,20.19
2018-07-24T05:30:32.944Z,20.26
2018-07-24T05:33:01.699Z,20.24
2018-07-24T05:35:30.621Z,20.33
2018-07-24T05:37:59.466Z,20.43
2018-07-24T05:40:28.382Z,20.46
2018-07-24T05:42:57.159Z,20.51
2018-07-24T05:45:26.166Z,20.53
2018-07-24T05:47:55.193Z,20.62
2018-07-24T05:50:24.162Z,20.70
2018-07-24T05:52:52.987Z,20.75
2018-07-24T05:55:22.150Z,20.82
2018-07-24T05:57:51.178Z,20.94
2018-07-24T06:00:20.278Z,21.00
2018-07-24T06:02:49.038Z,21.04
2018-07-24T06:05:17.997Z,21.07
2018-07-24T06:07:46.914Z,21.14
2018-07-24T06:10:15.729Z,21.29
2018-07-24T06:12:44.597Z,21.41
2018-07-24T06:15:13.383Z,21.47
2018-07-24T06:17:42.505Z,21.49
2018-07-24T06:20:11.868Z,21.55
2018-07-24T06:22:40.876Z,21.58
2018-07-24T06:25:09.602Z,21.66
2018-07-24T06:27:38.609Z,21.70
2018-07-24T06:30:08.154Z,21.73
2018-07-24T06:32:37.029Z,21.65
2018-07-24T06:35:06.010Z,21.78
2018-07-24T06:37:34.908Z,21.91
2018-07-24T06:40:04.230Z,22.03
2018-07-24T06:42:33.126Z,22.17
2018-07-24T06:45:01.927Z,22.27
2018-07-24T06:47:30.688Z,22.11
2018-07-24T06:49:59.792Z,22.30
2018-07-24T06:52:28.808Z,22.35
2018-07-24T06:54:57.607Z,22.43
2018-07-24T06:57:26.565Z,22.40
2018-07-24T06:59:55.501Z,22.50
2018-07-24T07:02:24.486Z,22.53
2018-07-24T07:04:53.314Z,22.80
2018-07-24T07:07:22.351Z,22.99
2018-07-24T07:09:51.270Z,22.92
2018-07-24T07:12:20.071Z,23.01
2018-07-24T07:14:49.059Z,23.02
2018-07-24T07:17:17.796Z,23.07
2018-07-24T07:19:46.654Z,23.21
2018-07-24T07:22:15.498Z,23.40
2018-07-24T07:24:44.263Z,23.46
2018-07-24T07:27:12.995Z,23.59
2018-07-24T07:29:41.909Z,23.68
2018-07-24T07:32:10.719Z,23.77
2018-07-24T07:34:39.598Z,23.89
2018-07-24T07:37:08.340Z,23.89
2018-07-24T07:39:37.238Z,23.93
2018-07-24T07:42:06.116Z,24.08
2018-07-24T07:44:35.131Z,24.27
2018-07-24T07:47:04.154Z,24.35
2018-07-24T07:49:33.108Z,24.35
2018-07-24T07:52:02.107Z,24.42
2018-07-24T07:54:30.967Z,24.53
2018-07-24T07:56:59.704Z,24.72
2018-07-24T07:59:28.463Z,24.84
2018-07-24T08:01:57.498Z,24.96
2018-07-24T08:04:26.499Z,24.92
2018-07-24T08:06:55.198Z,25.01
2018-07-24T08:09:24.046Z,25.02
2018-07-24T08:11:52.838Z,25.01
2018-07-24T08:14:21.828Z,25.12
2018-07-24T08:16:50.619Z,25.15
2018-07-24T08:19:19.490Z,25.32
2018-07-24T08:21:48.561Z,25.31
2018-07-24T08:24:17.459Z,25.57
2018-07-24T08:26:46.237Z,25.56
2018-07-24T08:29:15.446Z,25.35
2018-07-24T08:31:44.538Z,25.64
2018-07-24T08:34:13.218Z,25.77
2018-07-24T08:36:42.169Z,25.74
2018-07-24T08:39:12.218Z,25.53
2018-07-24T08:41:41.589Z,25.72
2018-07-24T08:44:10.562Z,26.01
2018-07-24T08:46:39.799Z,25.96
2018-07-24T08:49:08.791Z,26.08
2018-07-24T08:51:37.641Z,26.16
2018-07-24T08:54:06.699Z,26.26
2018-07-24T08:56:36.039Z,26.58
2018-07-24T08:59:05.125Z,26.71
2018-07-24T09:01:34.105Z,26.70
2018-07-24T09:04:02.998Z,26.89
2018-07-24T09:06:32.010Z,26.84
2018-07-24T09:09:00.837Z,26.88
2018-07-24T09:11:30.028Z,26.95
2018-07-24T09:13:58.834Z,27.16
2018-07-24T09:16:27.646Z,27.27
2018-07-24T09:18:56.914Z,27.49
2018-07-24T09:21:26.008Z,27.31
2018-07-24T09:23:55.071Z,27.19
2018-07-24T09:26:23.885Z,27.28
2018-07-24T09:28:53.034Z,27.58
2018-07-24T09:31:21.897Z,27.83
2018-07-24T09:33:50.715Z,27.93
2018-07-24T09:36:20.461Z,28.13
2018-07-24T09:38:49.315Z,28.30
2018-07-24T09:41:18.207Z,28.08
2018-07-24T09:43:47.288Z,28.04
2018-07-24T09:46:16.161Z,27.77
2018-07-24T09:48:46.721Z,27.90
2018-07-24T09:51:15.927Z,28.07
2018-07-24T09:53:44.762Z,28.28
2018-07-24T09:56:13.929Z,28.24
2018-07-24T09:58:42.746Z,28.24
2018-07-24T10:01:16.853Z,28.11
2018-07-24T10:03:46.650Z,28.14
2018-07-24T10:06:15.557Z,28.10
2018-07-24T10:08:44.525Z,28.21
2018-07-24T10:11:13.282Z,28.29
2018-07-24T10:13:42.005Z,28.56
2018-07-24T10:16:10.850Z,28.83
2018-07-24T10:18:39.609Z,28.91
2018-07-24T10:21:08.569Z,29.06
2018-07-24T10:23:37.396Z,29.20
2018-07-24T10:26:06.381Z,29.29
2018-07-24T10:28:35.574Z,29.28
2018-07-24T10:31:04.363Z,29.50
2018-07-24T10:33:33.155Z,29.66
2018-07-24T10:36:01.947Z,29.90
2018-07-24T10:38:30.887Z,29.88
2018-07-24T10:40:59.758Z,29.90
2018-07-24T10:43:28.578Z,29.95
2018-07-24T10:45:57.434Z,30.05
2018-07-24T10:48:26.266Z,30.14
2018-07-24T10:50:55.115Z,30.30
2018-07-24T10:53:24.134Z,30.48
2018-07-24T10:55:53.212Z,30.55
2018-07-24T10:58:22.160Z,30.58
2018-07-24T11:00:50.963Z,29.93
2018-07-24T11:03:20.209Z,30.13
2018-07-24T11:05:49.163Z,30.18
2018-07-24T11:08:18.035Z,30.35
2018-07-24T11:10:46.807Z,30.14
2018-07-24T11:13:15.663Z,29.40
2018-07-24T11:15:44.698Z,29.33
2018-07-24T11:18:13.825Z,29.66
2018-07-24T11:20:42.709Z,29.07
2018-07-24T11:23:12.123Z,28.82
2018-07-24T11:25:40.862Z,28.73
2018-07-24T11:28:09.754Z,28.74
2018-07-24T11:30:38.451Z,28.89
2018-07-24T11:33:07.350Z,28.79
2018-07-24T11:35:36.393Z,29.28
2018-07-24T11:38:05.879Z,29.47
2018-07-24T11:40:35.050Z,29.75
2018-07-24T11:43:04.076Z,29.89
2018-07-24T11:45:33.120Z,30.01
2018-07-24T11:48:02.214Z,29.84
2018-07-24T11:50:31.298Z,29.91
2018-07-24T11:53:00.329Z,29.84
2018-07-24T11:55:29.232Z,29.87
2018-07-24T11:57:58.370Z,29.65
2018-07-24T12:00:27.201Z,29.71
2018-07-24T12:02:56.313Z,29.66
2018-07-24T12:05:25.280Z,29.56
2018-07-24T12:07:54.102Z,29.91
2018-07-24T12:10:22.948Z,30.08
2018-07-24T12:12:52.020Z,30.41
2018-07-24T12:15:20.877Z,31.65
2018-07-24T12:17:49.786Z,32.06
2018-07-24T12:20:18.723Z,32.64
2018-07-24T12:22:47.723Z,33.33
2018-07-24T12:25:16.573Z,34.71
2018-07-24T12:27:45.625Z,35.48
2018-07-24T12:30:14.519Z,36.33
2018-07-24T12:32:43.345Z,36.03
2018-07-24T12:35:12.095Z,34.94
2018-07-24T12:37:41.254Z,35.23
2018-07-24T12:40:10.204Z,35.70
2018-07-24T12:42:39.202Z,36.27
2018-07-24T12:45:08.353Z,36.49
2018-07-24T12:47:37.070Z,36.20
2018-07-24T12:50:06.779Z,36.97
2018-07-24T12:52:35.852Z,37.66
2018-07-24T12:55:04.922Z,39.28
2018-07-24T12:57:33.858Z,38.72
2018-07-24T13:00:03.566Z,37.66
2018-07-24T13:02:32.516Z,36.98
2018-07-24T13:05:01.611Z,37.62
2018-07-24T13:07:30.643Z,39.03
2018-07-24T13:09:59.498Z,40.04
2018-07-24T13:12:28.536Z,39.03
2018-07-24T13:14:57.368Z,39.58
2018-07-24T13:17:26.332Z,39.85
2018-07-24T13:19:55.140Z,38.49
2018-07-24T13:22:24.046Z,38.37
2018-07-24T13:24:52.884Z,39.52
2018-07-24T13:27:21.706Z,39.83
2018-07-24T13:29:50.386Z,40.18
2018-07-24T13:32:19.135Z,39.96
2018-07-24T13:34:48.106Z,40.52
2018-07-24T13:37:16.822Z,40.79
2018-07-24T13:39:45.626Z,40.11
2018-07-24T13:42:14.383Z,40.66
2018-07-24T13:44:43.251Z,39.45
2018-07-24T13:47:12.024Z,41.16
2018-07-24T13:49:41.077Z,41.85
2018-07-24T13:52:10.298Z,42.51
2018-07-24T13:54:39.493Z,41.98
2018-07-24T13:57:08.675Z,41.97
2018-07-24T13:59:37.381Z,41.83
2018-07-24T14:02:06.259Z,42.91
2018-07-24T14:04:35.074Z,41.60
2018-07-24T14:07:07.409Z,41.70
2018-07-24T14:09:36.189Z,41.68
2018-07-24T14:12:05.119Z,39.61
2018-07-24T14:14:34.022Z,38.31
2018-07-24T14:17:02.912Z,37.65
2018-07-24T14:19:31.978Z,36.62
2018-07-24T14:22:01.390Z,36.49
2018-07-24T14:24:30.304Z,35.75
2018-07-24T14:26:59.220Z,35.19
2018-07-24T14:29:28.411Z,34.25
2018-07-24T14:31:57.533Z,33.52
2018-07-24T14:34:26.842Z,33.57
2018-07-24T14:36:55.945Z,33.09
2018-07-24T14:39:25.078Z,32.91
2018-07-24T14:41:54.487Z,33.03
2018-07-24T14:44:25.737Z,33.09
2018-07-24T14:46:55.017Z,32.98
2018-07-24T14:49:23.997Z,32.25
2018-07-24T14:51:52.942Z,32.39
2018-07-24T14:54:22.293Z,32.74
2018-07-24T14:56:51.367Z,32.80
2018-07-24T14:59:20.281Z,32.73
2018-07-24T15:01:48.984Z,32.70
2018-07-24T15:04:17.807Z,32.88
2018-07-24T15:06:46.719Z,32.37
2018-07-24T15:09:15.567Z,32.43
2018-07-24T15:11:44.351Z,32.21
2018-07-24T15:14:13.484Z,31.71
2018-07-24T15:16:42.344Z,31.48
2018-07-24T15:19:11.070Z,31.34
2018-07-24T15:21:39.916Z,31.21
2018-07-24T15:24:08.810Z,31.02
2018-07-24T15:26:37.755Z,31.07
2018-07-24T15:29:06.645Z,31.04
2018-07-24T15:31:35.595Z,30.89
2018-07-24T15:34:04.929Z,31.09
2018-07-24T15:36:33.853Z,31.29
2018-07-24T15:39:03.132Z,31.27
2018-07-24T15:41:31.931Z,31.30
2018-07-24T15:44:00.663Z,31.52
2018-07-24T15:46:29.558Z,31.42
2018-07-24T15:48:58.441Z,31.23
2018-07-24T15:51:27.534Z,31.50
2018-07-24T15:53:56.837Z,31.56
2018-07-24T15:56:25.713Z,31.93
2018-07-24T15:58:54.853Z,31.95
2018-07-24T16:01:23.652Z,31.91
2018-07-24T16:03:52.368Z,32.43
2018-07-24T16:06:21.704Z,32.60
2018-07-24T16:08:50.461Z,33.59
2018-07-24T16:11:19.484Z,34.47
2018-07-24T16:13:48.416Z,35.55
2018-07-24T16:16:17.477Z,35.68
2018-07-24T16:18:46.400Z,33.93
2018-07-24T16:21:15.192Z,33.33
2018-07-24T16:23:43.972Z,32.83
2018-07-24T16:26:12.919Z,32.77
2018-07-24T16:28:41.781Z,32.55
2018-07-24T16:31:10.616Z,32.51
2018-07-24T16:33:39.557Z,32.29
2018-07-24T16:36:08.491Z,32.29
2018-07-24T16:38:37.802Z,32.27
2018-07-24T16:41:06.819Z,32.18
2018-07-24T16:43:35.686Z,32.04
2018-07-24T16:46:04.539Z,31.95
2018-07-24T16:48:33.425Z,32.02
2018-07-24T16:51:02.318Z,31.76
2018-07-24T16:53:31.131Z,31.72
2018-07-24T16:56:00.363Z,31.81
2018-07-24T16:58:29.146Z,31.85
2018-07-24T17:00:58.015Z,32.01
2018-07-24T17:03:27.091Z,32.21
2018-07-24T17:05:55.985Z,32.13
2018-07-24T17:08:24.750Z,31.98
2018-07-24T17:10:53.534Z,31.87
2018-07-24T17:13:22.629Z,31.84
2018-07-24T17:15:51.876Z,31.61
2018-07-24T17:18:20.877Z,31.74
2018-07-24T17:20:49.826Z,31.75
2018-07-24T17:23:18.875Z,31.68
2018-07-24T17:25:47.926Z,31.88
2018-07-24T17:28:16.960Z,31.80
2018-07-24T17:30:45.982Z,31.70
2018-07-24T17:33:14.800Z,31.53
2018-07-24T17:35:43.831Z,31.44
2018-07-24T17:38:12.653Z,31.31
2018-07-24T17:40:41.615Z,31.36
2018-07-24T17:43:10.634Z,31.16
2018-07-24T17:45:39.777Z,31.04
2018-07-24T17:48:09.040Z,30.94
2018-07-24T17:50:38.246Z,30.93
2018-07-24T17:53:07.136Z,31.00
2018-07-24T17:55:35.998Z,30.93
2018-07-24T17:58:05.225Z,30.91
2018-07-24T18:00:34.447Z,31.09
2018-07-24T18:03:04.391Z,31.57
2018-07-24T18:05:33.221Z,31.74
2018-07-24T18:08:02.108Z,31.93
2018-07-24T18:10:30.969Z,32.17
2018-07-24T18:13:00.092Z,32.42
2018-07-24T18:15:29.175Z,32.42
2018-07-24T18:17:58.161Z,32.45
2018-07-24T18:20:26.935Z,32.19
2018-07-24T18:22:55.921Z,31.81
2018-07-24T18:25:24.674Z,31.70
2018-07-24T18:27:53.514Z,31.42
2018-07-24T18:30:22.356Z,31.04
2018-07-24T18:32:51.338Z,30.69
2018-07-24T18:35:20.221Z,30.52
2018-07-24T18:37:49.225Z,30.34
2018-07-24T18:40:18.096Z,30.10
2018-07-24T18:42:46.849Z,29.95
2018-07-24T18:45:15.592Z,29.81
2018-07-24T18:47:44.452Z,29.67
2018-07-24T18:50:13.144Z,29.52
2018-07-24T18:52:41.833Z,29.35
2018-07-24T18:55:13.623Z,29.22
2018-07-24T18:57:42.382Z,29.08
2018-07-24T19:00:11.445Z,28.96
2018-07-24T19:02:40.788Z,28.84
2018-07-24T19:05:09.737Z,28.74
2018-07-24T19:07:38.733Z,28.66
2018-07-24T19:10:07.655Z,28.58
2018-07-24T19:12:36.468Z,28.49
2018-07-24T19:15:06.583Z,28.39
2018-07-24T19:17:35.335Z,28.31
2018-07-24T19:20:04.455Z,28.20
2018-07-24T19:22:33.196Z,28.11
2018-07-24T19:25:02.086Z,28.04
2018-07-24T19:27:30.825Z,27.94
2018-07-24T19:30:06.153Z,27.85
2018-07-24T19:32:34.957Z,27.78
2018-07-24T19:35:03.960Z,27.70
2018-07-24T19:37:32.748Z,27.64
2018-07-24T19:40:01.669Z,27.58
2018-07-24T19:42:30.746Z,27.49
2018-07-24T19:44:59.560Z,27.41
2018-07-24T19:47:28.380Z,27.32
2018-07-24T19:49:57.140Z,27.19
2018-07-24T19:52:25.890Z,27.10
2018-07-24T19:54:54.648Z,26.97
2018-07-24T19:57:23.531Z,26.84
2018-07-24T19:59:52.349Z,26.83
2018-07-24T20:02:21.297Z,26.79
2018-07-24T20:04:50.273Z,26.71
2018-07-24T20:07:19.235Z,26.62
2018-07-24T20:09:50.038Z,26.57
2018-07-24T20:12:19.744Z,26.53
2018-07-24T20:14:48.549Z,26.40
2018-07-24T20:17:17.924Z,26.36
2018-07-24T20:19:46.690Z,26.25
2018-07-24T20:22:15.618Z,26.10
2018-07-24T20:24:44.729Z,26.00
2018-07-24T20:27:14.012Z,25.87
2018-07-24T20:29:43.538Z,25.79
2018-07-24T20:32:12.761Z,25.75
2018-07-24T20:34:41.641Z,25.66
2018-07-24T20:37:10.736Z,25.66
2018-07-24T20:39:39.829Z,25.54
2018-07-24T20:42:08.638Z,25.52
2018-07-24T20:44:37.396Z,25.47
2018-07-24T20:47:06.202Z,25.41
2018-07-24T20:49:35.077Z,25.37
2018-07-24T20:52:03.909Z,25.34
2018-07-24T20:54:33.055Z,25.26
2018-07-24T20:57:02.270Z,25.16
2018-07-24T20:59:31.049Z,25.11
2018-07-24T21:01:59.957Z,25.09
2018-07-24T21:04:28.835Z,25.02
2018-07-24T21:06:57.516Z,24.95
2018-07-24T21:09:26.305Z,24.90
2018-07-24T21:11:55.270Z,24.80
2018-07-24T21:14:24.025Z,24.73
2018-07-24T21:16:52.769Z,24.63
2018-07-24T21:19:21.637Z,24.59
2018-07-24T21:21:50.365Z,24.52
2018-07-24T21:24:19.355Z,24.39
2018-07-24T21:26:48.274Z,24.35
2018-07-24T21:29:17.257Z,24.38
2018-07-24T21:31:45.977Z,24.37
2018-07-24T21:34:14.866Z,24.28
2018-07-24T21:36:43.635Z,24.24
2018-07-24T21:39:13.046Z,24.22
2018-07-24T21:41:41.780Z,24.21
2018-07-24T21:44:10.641Z,24.19
2018-07-24T21:46:39.659Z,24.06
2018-07-24T21:49:08.724Z,24.03
2018-07-24T21:51:37.584Z,24.02
2018-07-24T21:54:06.441Z,23.98
2018-07-24T21:56:35.314Z,23.86
2018-07-24T21:59:04.179Z,23.84
2018-07-24T22:01:32.896Z,23.80
2018-07-24T22:04:01.732Z,23.76
2018-07-24T22:06:30.683Z,23.73
2018-07-24T22:08:59.593Z,23.72
2018-07-24T22:11:28.257Z,23.72
2018-07-24T22:13:57.181Z,23.68
2018-07-24T22:16:25.957Z,23.71
2018-07-24T22:18:55.087Z,23.71
2018-07-24T22:21:24.119Z,23.68
2018-07-24T22:23:53.243Z,23.70
2018-07-24T22:26:22.387Z,23.67
2018-07-24T22:28:51.361Z,23.57
2018-07-24T22:31:20.495Z,23.58
2018-07-24T22:33:49.532Z,23.52
2018-07-24T22:36:18.460Z,23.48
2018-07-24T22:38:47.367Z,23.42
2018-07-24T22:41:16.419Z,23.42
2018-07-24T22:43:45.118Z,23.44
2018-07-24T22:46:14.161Z,23.44
2018-07-24T22:48:43.178Z,23.42
2018-07-24T22:51:12.203Z,23.39
2018-07-24T22:53:41.082Z,23.34
2018-07-24T22:56:09.877Z,23.29
2018-07-24T22:58:38.849Z,23.24
2018-07-24T23:01:07.886Z,23.21
2018-07-24T23:03:36.658Z,23.15
2018-07-24T23:06:05.778Z,23.12
2018-07-24T23:08:34.620Z,23.06
2018-07-24T23:11:03.760Z,23.02
2018-07-24T23:13:32.673Z,22.93
2018-07-24T23:16:01.533Z,22.93
2018-07-24T23:18:30.550Z,22.90
2018-07-24T23:20:59.461Z,22.87
2018-07-24T23:23:28.408Z,22.89
2018-07-24T23:25:57.729Z,22.89
2018-07-24T23:28:26.678Z,22.90
2018-07-24T23:30:55.787Z,22.86
2018-07-24T23:33:25.202Z,22.82
2018-07-24T23:35:54.023Z,22.78
2018-07-24T23:38:22.837Z,22.72
2018-07-24T23:40:51.918Z,22.70
2018-07-24T23:43:20.769Z,22.65
2018-07-24T23:45:49.598Z,22.67
2018-07-24T23:48:18.348Z,22.58
2018-07-24T23:50:47.337Z,22.58
2018-07-24T23:53:16.211Z,22.55
2018-07-24T23:55:45.066Z,22.50
2018-07-24T23:58:13.896Z,22.47
